FLN weather

Hercílio Luz International Airport
Florianópolis, Santa Catarina, Brazil

Public forecast

Using degrees Celsius for public forecast. Weather courtesy of forecast.io.

Current aviation weather report (METAR) for Hercílio Luz International Airport

Retrieved 2020/07/02 05:00 UTC (9 minutes ago):

SBFL 020500Z 34001KT CAVOK 12/08 Q1015

Aviation forecast (TAF) for Hercílio Luz International Airport

Retrieved 2020-07-02 00:00 UTC (5 hours ago):

TAF SBFL 012100Z 0200/0224 28010KT 9999 SCT030 TN12/0209Z TX16/0218Z BECMG 0204/0206 23005KT SCT025 BECMG 0216/0218 18009KT BECMG 0222/0224 21008KT RMK PDP